Cheyney, PA

3:48 PM EST on November 28, 2014 (GMT -0500)
Glen Mills | Change Station
CLOSE
Current Station
Personal Weather Station
Location: Glen Mills, PA
Elevation: 463 ft
Nearby Weather Stations

Elev 463 ft 39.92 °N, 75.52 °W | Updated 1 minute ago

Partly Cloudy
Partly Cloudy
32.9 °F
Feels Like 21 °F
N
19.0
Wind Variable Wind from SW
Gusts 19.0 mph

Today
High -- | Low -- °F
--% Chance of Precip.
Yesterday
High -- | Low -- °F
Precip. -- in
7:01 AM 4:38 PM
Waxing Crescent, 44% visible
Pressure 30.23 in
Visibility 10.0 miles
Clouds Scattered Clouds 5000 ft
Windchill 21 °F
Dew Point 18 °F
Humidity 53%
Rainfall 0.00 in
Snow Depth Not available.
UV 1 out of 12
Pollen .10 out of 12
Air Quality Not available.
Flu Activity Not available.
METAR KPHL 281954Z 28015G19KT 10SM SCT050 03/M10 A3023 RMK AO2 SLP236 T00281100 $

More Conditions Fewer Conditions

Pressure 30.23 in
Visibility 10.0 miles
Clouds Scattered Clouds 5000 ft
Windchill 21 °F
Dew Point 18 °F
Humidity 53%
Rainfall 0.00 in
Snow Depth Not available.
UV 1 out of 12
Pollen .10 out of 12
Air Quality Not available.
Flu Activity Not available.
METAR KPHL 281954Z 28015G19KT 10SM SCT050 03/M10 A3023 RMK AO2 SLP236 T00281100 $

More Conditions Fewer Conditions

10-Day Weather Forecast

Almanac

Astronomy

Nov. 28, 2014 Rise Set
Actual Time
Civil Twilight
Nautical Twilight
Astronomical Twilight
Moon
Length of Visible Light
Length of Day
Tomorrow will be .
, % of the Moon is Illuminated

Today's Extremes

State Highs State Lows

Community

WunderPhotos

Upload Photos

1,774,287 photos uploaded!

WunderBlogs® & News

Nearby

Air Quality

  Air Quality AQ Index Pollutant
Not available.

Snow Depth

Station Depth Elevation

Earthquake Activity

City Distance Mag. Time & Date
Minimum magnitude displayed is 2.5.

Coastal Water Temperatures

Place Temperature

Nearby Weather Stations